createdAt,value
2019-02-12T00:00:12.958Z,0
2019-02-12T00:12:20.823Z,0
2019-02-12T00:16:06.148Z,0
2019-02-12T00:17:00.453Z,0
2019-02-12T00:17:58.641Z,0
2019-02-12T00:18:53.932Z,0
2019-02-12T00:28:54.619Z,0
2019-02-12T00:29:46.444Z,0
2019-02-12T00:35:45.440Z,0
2019-02-12T00:36:34.779Z,0
2019-02-12T00:43:37.014Z,0
2019-02-12T01:06:41.678Z,0
2019-02-12T01:07:41.455Z,0
2019-02-12T01:08:44.746Z,0
2019-02-12T01:09:46.796Z,0
2019-02-12T01:10:50.196Z,0
2019-02-12T01:11:52.324Z,0
2019-02-12T01:12:49.700Z,0
2019-02-12T01:14:03.321Z,0
2019-02-12T01:27:19.331Z,0
2019-02-12T01:28:11.526Z,0
2019-02-12T01:29:01.054Z,0
2019-02-12T01:32:00.564Z,0
2019-02-12T01:32:53.112Z,0
2019-02-12T01:44:37.412Z,0
2019-02-12T01:45:29.635Z,0
2019-02-12T01:46:18.681Z,0
2019-02-12T01:47:12.559Z,0
2019-02-12T01:48:03.199Z,0
2019-02-12T01:48:57.134Z,0
2019-02-12T01:49:45.120Z,0
2019-02-12T01:50:38.486Z,0
2019-02-12T01:51:34.878Z,0
2019-02-12T01:52:26.288Z,0
2019-02-12T01:53:19.296Z,0
2019-02-12T01:54:13.898Z,0
2019-02-12T01:55:05.564Z,0
2019-02-12T02:05:26.572Z,0
2019-02-12T02:07:54.586Z,0
2019-02-12T02:08:47.953Z,0
2019-02-12T02:12:54.316Z,0
2019-02-12T02:13:47.296Z,0
2019-02-12T02:17:05.285Z,0
2019-02-12T02:17:58.375Z,0
2019-02-12T02:18:52.618Z,0
2019-02-12T02:23:18.205Z,0
2019-02-12T02:26:14.505Z,0
2019-02-12T02:27:00.224Z,0
2019-02-12T02:27:49.770Z,0
2019-02-12T02:28:39.770Z,0
2019-02-12T02:29:33.257Z,0
2019-02-12T02:34:05.968Z,0
2019-02-12T02:34:56.010Z,0
2019-02-12T02:35:45.430Z,0
2019-02-12T02:36:38.677Z,0
2019-02-12T02:37:30.552Z,0
2019-02-12T02:38:19.760Z,0
2019-02-12T02:39:12.977Z,0
2019-02-12T02:40:08.334Z,0
2019-02-12T02:51:25.713Z,0
2019-02-12T03:03:42.029Z,0
2019-02-12T03:04:51.391Z,0
2019-02-12T03:17:44.622Z,0
2019-02-12T03:31:39.026Z,0
2019-02-12T03:32:32.994Z,0
2019-02-12T03:33:23.418Z,0
2019-02-12T03:34:13.320Z,0
2019-02-12T03:35:04.811Z,0
2019-02-12T03:36:05.824Z,0
2019-02-12T03:38:43.389Z,0
2019-02-12T03:39:39.868Z,0
2019-02-12T03:40:37.913Z,0
2019-02-12T03:41:35.450Z,0
2019-02-12T03:42:30.799Z,0
2019-02-12T03:47:55.315Z,0
2019-02-12T03:56:59.365Z,0
2019-02-12T03:57:58.105Z,0
2019-02-12T04:00:25.003Z,0
2019-02-12T04:01:21.930Z,0
2019-02-12T04:20:07.890Z,0
2019-02-12T04:21:12.193Z,0
2019-02-12T04:22:22.115Z,0
2019-02-12T04:23:24.272Z,0
2019-02-12T04:24:20.062Z,0
2019-02-12T04:25:15.251Z,0
2019-02-12T04:26:13.223Z,0
2019-02-12T04:27:08.766Z,0
2019-02-12T05:07:02.282Z,0
2019-02-12T05:07:54.381Z,0
2019-02-12T05:08:48.380Z,0
2019-02-12T05:09:40.772Z,0
2019-02-12T05:10:33.793Z,0
2019-02-12T05:11:26.163Z,0
2019-02-12T05:12:19.664Z,0
2019-02-12T05:13:12.382Z,0
2019-02-12T05:14:06.088Z,0
2019-02-12T05:14:59.380Z,0
2019-02-12T05:15:54.011Z,0
2019-02-12T05:16:47.400Z,0
2019-02-12T05:17:51.214Z,0
2019-02-12T05:18:52.608Z,0
2019-02-12T05:19:50.835Z,0
2019-02-12T05:20:52.841Z,0
2019-02-12T05:21:51.896Z,0
2019-02-12T05:22:50.249Z,0
2019-02-12T05:23:48.806Z,0
2019-02-12T05:24:56.238Z,0
2019-02-12T05:25:51.700Z,0
2019-02-12T05:26:51.035Z,0
2019-02-12T05:27:50.209Z,0
2019-02-12T05:28:43.709Z,0
2019-02-12T05:29:38.997Z,0
2019-02-12T05:30:37.018Z,0
2019-02-12T05:31:33.184Z,0
2019-02-12T05:32:30.332Z,0
2019-02-12T05:33:26.453Z,0
2019-02-12T05:34:20.618Z,0
2019-02-12T05:35:17.026Z,0
2019-02-12T05:36:13.022Z,0
2019-02-12T05:37:07.793Z,0
2019-02-12T05:38:04.281Z,0
2019-02-12T05:39:01.768Z,0
2019-02-12T05:39:56.768Z,0
2019-02-12T05:40:53.746Z,0
2019-02-12T05:41:49.302Z,0
2019-02-12T05:53:00.925Z,0
2019-02-12T05:54:04.718Z,0
2019-02-12T05:55:18.829Z,0
2019-02-12T06:07:12.789Z,0
2019-02-12T06:13:13.227Z,0
2019-02-12T06:14:10.845Z,0
2019-02-12T06:15:31.827Z,0
2019-02-12T06:16:30.847Z,0
2019-02-12T06:17:26.676Z,0
2019-02-12T06:28:02.238Z,0
2019-02-12T06:28:56.468Z,0
2019-02-12T06:29:51.810Z,0
2019-02-12T06:30:52.767Z,0
2019-02-12T06:33:33.879Z,0
2019-02-12T06:34:32.044Z,0
2019-02-12T06:35:40.316Z,0
2019-02-12T06:52:03.350Z,0
2019-02-12T06:52:59.566Z,0
2019-02-12T06:53:53.800Z,0
2019-02-12T06:56:29.024Z,0
2019-02-12T06:57:33.122Z,0
2019-02-12T07:00:23.888Z,0
2019-02-12T07:01:17.399Z,0
2019-02-12T07:02:11.117Z,0
2019-02-12T07:03:06.900Z,0
2019-02-12T07:04:00.599Z,0
2019-02-12T07:07:10.376Z,5
2019-02-12T07:08:07.509Z,5
2019-02-12T07:09:08.564Z,5
2019-02-12T07:13:57.851Z,5
2019-02-12T07:14:38.871Z,5
2019-02-12T07:15:19.929Z,5
2019-02-12T07:16:00.362Z,5
2019-02-12T07:16:40.738Z,5
2019-02-12T07:17:21.157Z,5
2019-02-12T07:18:04.532Z,5
2019-02-12T07:18:46.308Z,10
2019-02-12T07:19:26.479Z,10
2019-02-12T07:20:07.537Z,10
2019-02-12T07:20:49.466Z,10
2019-02-12T07:21:29.997Z,10
2019-02-12T07:22:10.864Z,10
2019-02-12T07:22:51.012Z,10
2019-02-12T07:23:35.066Z,15
2019-02-12T07:24:15.856Z,15
2019-02-12T07:24:56.413Z,15
2019-02-12T07:25:36.875Z,15
2019-02-12T07:26:17.479Z,15
2019-02-12T07:26:59.957Z,20
2019-02-12T07:27:40.525Z,20
2019-02-12T07:28:23.047Z,20
2019-02-12T07:29:02.657Z,20
2019-02-12T07:29:45.381Z,20
2019-02-12T07:30:31.509Z,20
2019-02-12T07:31:11.991Z,20
2019-02-12T07:37:07.736Z,20
2019-02-12T07:56:59.809Z,25
2019-02-12T07:57:59.977Z,25
2019-02-12T07:58:55.937Z,25
2019-02-12T07:59:53.768Z,25
2019-02-12T08:06:40.503Z,30
2019-02-12T08:07:39.812Z,30
2019-02-12T08:17:20.441Z,20
2019-02-12T08:41:37.935Z,20
2019-02-12T08:42:38.647Z,20
2019-02-12T08:49:45.163Z,30
2019-02-12T08:50:27.801Z,30
2019-02-12T08:51:08.223Z,30
2019-02-12T08:51:51.590Z,25
2019-02-12T08:52:31.611Z,25
2019-02-12T08:53:14.551Z,25
2019-02-12T08:53:55.229Z,25
2019-02-12T09:18:20.919Z,35
2019-02-12T09:19:02.502Z,35
2019-02-12T09:19:52.654Z,30
2019-02-12T10:03:38.352Z,25
2019-02-12T10:04:33.763Z,25
2019-02-12T10:05:15.769Z,25
2019-02-12T10:06:01.343Z,25
2019-02-12T10:07:14.241Z,25
2019-02-12T10:08:06.007Z,25
2019-02-12T10:08:49.519Z,30
2019-02-12T11:22:51.609Z,30
2019-02-12T11:23:36.409Z,30
2019-02-12T11:24:25.135Z,30
2019-02-12T11:25:10.889Z,30
2019-02-12T11:25:54.383Z,30
2019-02-12T11:26:39.103Z,30
2019-02-12T11:27:27.045Z,30
2019-02-12T11:28:13.267Z,30
2019-02-12T11:37:08.289Z,30
2019-02-12T11:37:56.171Z,30
2019-02-12T11:38:57.655Z,30
2019-02-12T11:39:39.576Z,30
2019-02-12T11:40:22.077Z,30
2019-02-12T11:41:09.467Z,30
2019-02-12T11:41:49.647Z,30
2019-02-12T11:42:32.188Z,30
2019-02-12T11:43:21.446Z,30
2019-02-12T11:44:08.917Z,30
2019-02-12T11:44:50.499Z,30
2019-02-12T11:45:33.556Z,30
2019-02-12T11:46:18.118Z,30
2019-02-12T11:47:01.152Z,30
2019-02-12T11:47:52.429Z,30
2019-02-12T11:48:32.409Z,30
2019-02-12T11:49:16.722Z,30
2019-02-12T11:49:59.618Z,30
2019-02-12T11:50:40.287Z,30
2019-02-12T11:51:24.593Z,30
2019-02-12T11:52:07.957Z,30
2019-02-12T11:52:53.961Z,30
2019-02-12T11:53:36.455Z,30
2019-02-12T11:54:21.752Z,30
2019-02-12T11:55:08.982Z,30
2019-02-12T11:58:09.786Z,30
2019-02-12T11:59:06.396Z,30
2019-02-12T12:04:27.696Z,30
2019-02-12T12:05:37.601Z,35
2019-02-12T12:06:33.138Z,35
2019-02-12T12:07:26.443Z,35
2019-02-12T12:08:20.028Z,35
2019-02-12T12:09:15.049Z,35
2019-02-12T12:10:21.417Z,35
2019-02-12T12:11:14.600Z,35
2019-02-12T12:12:06.860Z,35
2019-02-12T12:13:06.575Z,35
2019-02-12T12:14:00.102Z,35
2019-02-12T12:14:56.140Z,35
2019-02-12T12:15:48.631Z,35
2019-02-12T12:16:44.324Z,35
2019-02-12T12:17:38.337Z,35
2019-02-12T12:18:31.951Z,35
2019-02-12T12:19:13.677Z,35
2019-02-12T12:20:05.093Z,35
2019-02-12T12:21:05.997Z,35
2019-02-12T12:21:47.434Z,35
2019-02-12T12:22:28.211Z,35
2019-02-12T12:32:15.280Z,35
2019-02-12T12:36:00.842Z,35
2019-02-12T12:36:53.840Z,35
2019-02-12T12:37:50.378Z,35
2019-02-12T12:38:44.953Z,35
2019-02-12T12:39:38.036Z,35
2019-02-12T12:40:35.949Z,35
2019-02-12T12:41:33.355Z,35
2019-02-12T12:42:27.226Z,35
2019-02-12T12:43:21.707Z,35
2019-02-12T12:44:15.842Z,35
2019-02-12T12:45:11.126Z,35
2019-02-12T12:46:07.534Z,35
2019-02-12T12:47:04.112Z,35
2019-02-12T12:47:58.174Z,35
2019-02-12T12:48:59.257Z,35
2019-02-12T12:50:04.182Z,35
2019-02-12T12:51:07.980Z,35
2019-02-12T12:52:02.443Z,35
2019-02-12T12:52:56.150Z,35
2019-02-12T12:53:49.514Z,40
2019-02-12T12:54:47.685Z,40
2019-02-12T12:55:45.010Z,40
2019-02-12T12:56:40.240Z,40
2019-02-12T12:59:17.593Z,35
2019-02-12T13:00:25.897Z,35
2019-02-12T13:02:18.916Z,40
2019-02-12T13:03:17.858Z,45
2019-02-12T13:04:43.036Z,45
2019-02-12T13:14:01.779Z,45
2019-02-12T13:15:10.956Z,45
2019-02-12T13:16:05.013Z,45
2019-02-12T13:17:02.642Z,45
2019-02-12T13:17:56.589Z,45
2019-02-12T13:23:02.794Z,35
2019-02-12T13:24:05.475Z,35
2019-02-12T13:25:08.110Z,35
2019-02-12T13:28:04.639Z,35
2019-02-12T13:29:02.354Z,35
2019-02-12T13:30:09.354Z,35
2019-02-12T13:31:16.677Z,30
2019-02-12T13:32:13.362Z,30
2019-02-12T13:33:10.869Z,35
2019-02-12T13:34:02.578Z,35
2019-02-12T13:34:56.912Z,35
2019-02-12T13:35:51.422Z,35
2019-02-12T13:36:47.353Z,35
2019-02-12T13:37:41.038Z,35
2019-02-12T13:38:40.068Z,35
2019-02-12T13:39:34.740Z,35
2019-02-12T13:40:33.382Z,30
2019-02-12T13:41:30.830Z,30
2019-02-12T13:44:15.200Z,35
2019-02-12T13:45:17.677Z,35
2019-02-12T13:46:14.023Z,40
2019-02-12T13:47:10.547Z,40
2019-02-12T13:48:02.384Z,40
2019-02-12T13:48:55.747Z,35
2019-02-12T13:49:56.006Z,35
2019-02-12T13:51:05.990Z,35
2019-02-12T13:52:00.826Z,35
2019-02-12T13:52:58.922Z,35
2019-02-12T13:53:55.701Z,35
2019-02-12T13:54:54.438Z,35
2019-02-12T13:55:53.036Z,35
2019-02-12T13:56:49.114Z,35
2019-02-12T13:57:48.136Z,35
2019-02-12T13:58:47.234Z,35
2019-02-12T13:59:46.064Z,35
2019-02-12T14:02:45.134Z,35
2019-02-12T14:03:41.338Z,35
2019-02-12T14:04:44.279Z,35
2019-02-12T14:13:53.614Z,30
2019-02-12T14:14:47.491Z,35
2019-02-12T14:15:41.696Z,35
2019-02-12T14:16:42.424Z,30
2019-02-12T14:17:36.083Z,30
2019-02-12T14:18:29.365Z,30
2019-02-12T14:21:28.033Z,25
2019-02-12T14:22:31.968Z,25
2019-02-12T14:23:12.403Z,25
2019-02-12T14:23:58.561Z,25
2019-02-12T14:24:42.172Z,25
2019-02-12T14:25:47.660Z,25
2019-02-12T14:26:30.968Z,25
2019-02-12T14:27:13.623Z,25
2019-02-12T14:27:58.030Z,25
2019-02-12T14:28:54.990Z,25
2019-02-12T14:29:40.599Z,30
2019-02-12T14:30:21.847Z,30
2019-02-12T14:31:04.228Z,30
2019-02-12T14:31:52.942Z,30
2019-02-12T14:32:30.790Z,30
2019-02-12T14:33:15.411Z,30
2019-02-12T14:34:00.780Z,30
2019-02-12T14:34:41.210Z,35
2019-02-12T14:35:22.370Z,35
2019-02-12T14:36:05.681Z,35
2019-02-12T14:36:45.856Z,35
2019-02-12T14:37:30.364Z,35
2019-02-12T14:38:11.125Z,35
2019-02-12T14:39:01.820Z,30
2019-02-12T14:39:43.926Z,30
2019-02-12T14:42:29.103Z,25
2019-02-12T14:43:22.958Z,25
2019-02-12T14:44:18.515Z,25
2019-02-12T14:45:13.409Z,25
2019-02-12T14:46:08.624Z,25
2019-02-12T14:47:07.479Z,25
2019-02-12T14:48:00.541Z,25
2019-02-12T14:49:01.379Z,20
2019-02-12T14:49:59.056Z,20
2019-02-12T14:51:04.499Z,20
2019-02-12T14:52:06.261Z,20
2019-02-12T14:53:07.702Z,20
2019-02-12T14:54:03.710Z,20
2019-02-12T14:54:59.956Z,20
2019-02-12T14:56:11.450Z,20
2019-02-12T14:57:09.251Z,15
2019-02-12T14:58:19.794Z,15
2019-02-12T14:59:22.361Z,15
2019-02-12T15:00:36.267Z,15
2019-02-12T15:01:38.157Z,15
2019-02-12T15:02:38.207Z,15
2019-02-12T15:03:39.500Z,15
2019-02-12T15:06:39.293Z,15
2019-02-12T15:07:20.321Z,15
2019-02-12T15:08:00.841Z,15
2019-02-12T15:08:40.668Z,15
2019-02-12T15:09:23.834Z,15
2019-02-12T15:10:04.485Z,15
2019-02-12T15:10:45.468Z,15
2019-02-12T15:11:28.713Z,10
2019-02-12T15:12:10.791Z,15
2019-02-12T15:14:40.792Z,25
2019-02-12T15:15:37.085Z,20
2019-02-12T15:16:35.463Z,15
2019-02-12T15:17:33.191Z,15
2019-02-12T15:18:31.763Z,15
2019-02-12T15:19:48.915Z,20
2019-02-12T15:20:45.854Z,15
2019-02-12T15:21:39.381Z,15
2019-02-12T15:22:36.318Z,15
2019-02-12T15:23:36.520Z,15
2019-02-12T15:24:50.262Z,15
2019-02-12T15:27:55.863Z,30
2019-02-12T15:28:43.787Z,25
2019-02-12T15:29:29.073Z,20
2019-02-12T15:30:14.421Z,15
2019-02-12T15:45:08.409Z,15
2019-02-12T15:50:51.837Z,15
2019-02-12T15:51:49.093Z,10
2019-02-12T15:52:51.496Z,10
2019-02-12T15:53:49.147Z,10
2019-02-12T15:54:53.185Z,10
2019-02-12T15:55:53.615Z,10
2019-02-12T15:56:55.250Z,10
2019-02-12T15:57:54.149Z,10
2019-02-12T15:58:54.479Z,15
2019-02-12T15:59:55.964Z,15
2019-02-12T16:00:52.402Z,20
2019-02-12T16:01:55.238Z,15
2019-02-12T16:03:01.432Z,10
2019-02-12T16:04:00.199Z,10
2019-02-12T16:05:01.998Z,15
2019-02-12T16:12:12.490Z,5
2019-02-12T16:13:09.464Z,5
2019-02-12T16:14:06.865Z,5
2019-02-12T16:15:13.107Z,5
2019-02-12T16:16:08.254Z,5
2019-02-12T16:17:02.648Z,5
2019-02-12T16:17:58.318Z,5
2019-02-12T16:18:55.376Z,5
2019-02-12T16:19:50.344Z,5
2019-02-12T16:20:45.145Z,5
2019-02-12T16:22:11.913Z,5
2019-02-12T16:23:20.274Z,0
2019-02-12T16:24:15.861Z,0
2019-02-12T16:25:10.718Z,0
2019-02-12T16:26:05.390Z,0
2019-02-12T16:27:22.711Z,0
2019-02-12T16:30:20.770Z,0
2019-02-12T16:31:19.895Z,0
2019-02-12T16:32:13.967Z,0
2019-02-12T17:08:40.474Z,0
2019-02-12T17:09:37.987Z,0
2019-02-12T17:10:37.176Z,0
2019-02-12T17:11:35.863Z,0
2019-02-12T17:12:35.649Z,0
2019-02-12T17:13:33.009Z,0
2019-02-12T17:14:31.918Z,0
2019-02-12T17:15:36.201Z,0
2019-02-12T17:16:40.664Z,0
2019-02-12T17:19:37.560Z,0
2019-02-12T17:26:19.846Z,0
2019-02-12T17:27:17.364Z,0
2019-02-12T17:28:19.372Z,0
2019-02-12T17:29:21.395Z,0
2019-02-12T17:30:18.529Z,0
2019-02-12T17:31:24.388Z,0
2019-02-12T17:32:21.802Z,0
2019-02-12T17:33:17.880Z,0
2019-02-12T17:34:14.498Z,0
2019-02-12T17:35:19.977Z,0
2019-02-12T17:37:54.040Z,0
2019-02-12T17:38:52.707Z,0
2019-02-12T17:39:49.004Z,0
2019-02-12T17:43:03.096Z,0
2019-02-12T17:43:57.202Z,0
2019-02-12T17:44:50.896Z,0
2019-02-12T17:45:50.661Z,0
2019-02-12T17:46:45.443Z,0
2019-02-12T17:47:41.868Z,0
2019-02-12T17:48:37.375Z,0
2019-02-12T17:49:33.637Z,0
2019-02-12T17:50:29.074Z,0
2019-02-12T17:51:23.458Z,0
2019-02-12T17:52:17.075Z,0
2019-02-12T17:53:09.307Z,0
2019-02-12T17:54:07.167Z,0
2019-02-12T17:55:01.076Z,0
2019-02-12T17:55:59.688Z,0
2019-02-12T17:56:55.321Z,0
2019-02-12T17:57:49.552Z,0
2019-02-12T17:58:42.993Z,0
2019-02-12T17:59:38.163Z,0
2019-02-12T18:00:38.687Z,0
2019-02-12T18:01:31.967Z,0
2019-02-12T18:02:27.768Z,0
2019-02-12T18:03:20.412Z,0
2019-02-12T18:04:14.188Z,0
2019-02-12T18:05:07.575Z,0
2019-02-12T18:05:59.907Z,0
2019-02-12T18:06:51.903Z,0
2019-02-12T18:07:44.509Z,0
2019-02-12T18:08:37.982Z,0
2019-02-12T18:09:30.387Z,0
2019-02-12T18:10:24.728Z,0
2019-02-12T18:11:20.357Z,0
2019-02-12T18:12:12.628Z,0
2019-02-12T18:13:04.816Z,0
2019-02-12T18:13:56.719Z,0
2019-02-12T18:14:48.997Z,0
2019-02-12T18:15:42.918Z,0
2019-02-12T18:16:34.974Z,0
2019-02-12T18:17:26.903Z,0
2019-02-12T18:18:19.542Z,0
2019-02-12T18:19:11.996Z,0
2019-02-12T18:20:04.425Z,0
2019-02-12T18:20:58.239Z,0
2019-02-12T18:21:50.674Z,0
2019-02-12T18:22:44.411Z,0
2019-02-12T18:23:36.759Z,0
2019-02-12T18:24:28.739Z,0
2019-02-12T18:25:22.742Z,0
2019-02-12T18:26:14.369Z,0
2019-02-12T18:27:08.036Z,0
2019-02-12T18:28:00.508Z,0
2019-02-12T18:28:52.910Z,0
2019-02-12T18:29:45.542Z,0
2019-02-12T18:30:37.914Z,0
2019-02-12T18:31:30.937Z,0
2019-02-12T18:32:23.002Z,0
2019-02-12T18:33:16.157Z,0
2019-02-12T18:34:08.028Z,0
2019-02-12T18:35:01.593Z,0
2019-02-12T18:35:53.518Z,0
2019-02-12T18:36:46.128Z,0
2019-02-12T18:37:38.595Z,0
2019-02-12T18:38:30.653Z,0
2019-02-12T18:39:23.029Z,0
2019-02-12T18:40:15.972Z,0
2019-02-12T18:41:08.082Z,0
2019-02-12T18:41:59.822Z,0
2019-02-12T18:42:55.925Z,0
2019-02-12T18:43:48.619Z,0
2019-02-12T18:44:40.819Z,0
2019-02-12T18:45:33.265Z,0
2019-02-12T18:48:34.597Z,0
2019-02-12T18:49:26.677Z,0
2019-02-12T18:50:20.270Z,0
2019-02-12T18:51:12.697Z,0
2019-02-12T18:52:05.309Z,0
2019-02-12T18:52:57.764Z,0
2019-02-12T18:53:50.320Z,0
2019-02-12T18:54:42.780Z,0
2019-02-12T18:55:36.383Z,0
2019-02-12T18:56:29.803Z,0
2019-02-12T18:57:22.220Z,0
2019-02-12T18:58:14.514Z,0
2019-02-12T18:59:06.775Z,0
2019-02-12T18:59:59.801Z,0
2019-02-12T19:00:52.791Z,0
2019-02-12T19:01:45.795Z,0
2019-02-12T19:02:37.667Z,0
2019-02-12T19:03:29.753Z,0
2019-02-12T19:04:22.904Z,0
2019-02-12T19:05:15.516Z,0
2019-02-12T19:06:07.865Z,0
2019-02-12T19:07:00.258Z,0
2019-02-12T19:07:53.405Z,0
2019-02-12T19:08:45.425Z,0
2019-02-12T19:09:38.122Z,0
2019-02-12T19:10:31.698Z,0
2019-02-12T19:11:23.940Z,0
2019-02-12T19:12:17.601Z,0
2019-02-12T19:13:09.910Z,0
2019-02-12T19:14:02.819Z,0
2019-02-12T19:14:57.572Z,0
2019-02-12T19:15:49.785Z,0
2019-02-12T19:16:43.865Z,0
2019-02-12T19:17:36.308Z,0
2019-02-12T19:18:29.891Z,0
2019-02-12T19:19:23.255Z,0
2019-02-12T19:20:15.140Z,0
2019-02-12T19:21:08.366Z,0
2019-02-12T19:22:01.895Z,0
2019-02-12T19:22:54.811Z,0
2019-02-12T19:23:46.817Z,0
2019-02-12T19:24:40.724Z,0
2019-02-12T19:25:32.864Z,0
2019-02-12T19:26:27.943Z,0
2019-02-12T19:27:20.959Z,0
2019-02-12T19:28:13.392Z,0
2019-02-12T19:29:05.652Z,0
2019-02-12T19:29:57.551Z,0
2019-02-12T19:30:49.571Z,0
2019-02-12T19:31:42.628Z,0
2019-02-12T19:32:36.761Z,0
2019-02-12T19:33:29.152Z,0
2019-02-12T19:34:21.147Z,0
2019-02-12T19:35:14.756Z,0
2019-02-12T19:36:08.248Z,0
2019-02-12T19:37:03.438Z,0
2019-02-12T19:37:56.788Z,0
2019-02-12T19:38:49.073Z,0
2019-02-12T19:39:40.952Z,0
2019-02-12T19:40:34.288Z,0
2019-02-12T19:41:28.057Z,0
2019-02-12T19:42:20.556Z,0
2019-02-12T19:43:15.075Z,0
2019-02-12T19:44:06.337Z,0
2019-02-12T19:44:59.498Z,0
2019-02-12T19:45:52.931Z,0
2019-02-12T19:46:46.235Z,0
2019-02-12T19:47:38.713Z,0
2019-02-12T19:48:31.222Z,0
2019-02-12T19:49:24.789Z,0
2019-02-12T19:50:19.321Z,0
2019-02-12T19:51:11.751Z,0
2019-02-12T19:52:04.002Z,0
2019-02-12T19:52:57.273Z,0
2019-02-12T19:53:50.517Z,0
2019-02-12T19:54:42.720Z,0
2019-02-12T19:55:35.971Z,0
2019-02-12T19:56:28.137Z,0
2019-02-12T19:57:22.412Z,0
2019-02-12T19:58:16.142Z,0
2019-02-12T19:59:08.454Z,0
2019-02-12T20:00:00.850Z,0
2019-02-12T20:00:53.331Z,0
2019-02-12T20:01:45.495Z,0
2019-02-12T20:02:37.966Z,0
2019-02-12T20:03:31.477Z,0
2019-02-12T20:04:24.402Z,0
2019-02-12T20:05:16.597Z,0
2019-02-12T20:06:09.985Z,0
2019-02-12T20:07:02.509Z,0
2019-02-12T20:07:54.881Z,0
2019-02-12T20:08:47.612Z,0
2019-02-12T20:09:40.129Z,0
2019-02-12T20:10:32.302Z,0
2019-02-12T20:11:24.508Z,0
2019-02-12T20:12:17.521Z,0
2019-02-12T20:13:09.898Z,0
2019-02-12T20:14:02.553Z,0
2019-02-12T20:14:54.983Z,0
2019-02-12T20:15:47.353Z,0
2019-02-12T20:16:40.567Z,0
2019-02-12T20:17:32.963Z,0
2019-02-12T20:18:25.410Z,0
2019-02-12T20:19:17.922Z,0
2019-02-12T20:20:10.458Z,0
2019-02-12T20:21:02.889Z,0
2019-02-12T20:21:54.873Z,0
2019-02-12T20:22:48.253Z,0
2019-02-12T20:23:40.882Z,0
2019-02-12T20:24:33.219Z,0
2019-02-12T20:25:25.719Z,0
2019-02-12T20:26:18.022Z,0
2019-02-12T20:27:10.254Z,0
2019-02-12T20:28:02.950Z,0
2019-02-12T20:28:55.306Z,0
2019-02-12T20:29:47.470Z,0
2019-02-12T20:30:39.801Z,0
2019-02-12T20:31:32.030Z,0
2019-02-12T20:32:24.789Z,0
2019-02-12T20:33:16.680Z,0
2019-02-12T20:34:08.507Z,0
2019-02-12T20:35:00.521Z,0
2019-02-12T20:35:52.867Z,0
2019-02-12T20:36:44.982Z,0
2019-02-12T20:37:36.825Z,0
2019-02-12T20:38:29.168Z,0
2019-02-12T20:39:22.247Z,0
2019-02-12T20:40:15.241Z,0
2019-02-12T20:41:07.709Z,0
2019-02-12T20:42:01.502Z,0
2019-02-12T20:42:53.856Z,0
2019-02-12T20:43:46.300Z,0
2019-02-12T20:44:38.335Z,0
2019-02-12T20:45:30.493Z,0
2019-02-12T20:46:22.815Z,0
2019-02-12T20:47:15.743Z,0
2019-02-12T20:48:07.768Z,0
2019-02-12T20:49:00.037Z,0
2019-02-12T20:49:52.194Z,0
2019-02-12T20:50:45.247Z,0
2019-02-12T20:51:37.459Z,0
2019-02-12T20:52:30.235Z,0
2019-02-12T20:53:22.289Z,0
2019-02-12T20:54:14.439Z,0
2019-02-12T20:54:58.855Z,0
2019-02-12T20:55:39.247Z,0
2019-02-12T20:56:19.769Z,0
2019-02-12T20:57:00.236Z,0
2019-02-12T20:57:40.593Z,0
2019-02-12T20:58:20.957Z,0
2019-02-12T20:59:01.373Z,0
2019-02-12T20:59:41.805Z,0
2019-02-12T21:00:22.182Z,0
2019-02-12T21:01:02.649Z,0
2019-02-12T21:01:43.010Z,0
2019-02-12T21:02:23.402Z,0
2019-02-12T21:03:03.864Z,0
2019-02-12T21:03:44.305Z,0
2019-02-12T21:04:24.720Z,0
2019-02-12T21:05:05.039Z,0
2019-02-12T21:05:45.460Z,0
2019-02-12T21:06:25.890Z,0
2019-02-12T21:07:06.233Z,0
2019-02-12T21:07:46.679Z,0
2019-02-12T21:08:27.039Z,0
2019-02-12T21:09:07.484Z,0
2019-02-12T21:09:47.864Z,0
2019-02-12T21:10:28.259Z,0
2019-02-12T21:11:08.728Z,0
2019-02-12T21:11:49.199Z,0
2019-02-12T21:12:29.539Z,0
2019-02-12T21:13:09.912Z,0
2019-02-12T21:13:50.374Z,0
2019-02-12T21:14:30.742Z,0
2019-02-12T21:15:11.096Z,0
2019-02-12T21:15:51.520Z,0
2019-02-12T21:16:31.987Z,0
2019-02-12T21:17:12.389Z,0
2019-02-12T21:17:52.810Z,0
2019-02-12T21:18:33.152Z,0
2019-02-12T21:19:13.615Z,0
2019-02-12T21:19:54.215Z,0
2019-02-12T21:20:34.588Z,0
2019-02-12T21:21:15.057Z,0
2019-02-12T21:21:55.492Z,0
2019-02-12T21:22:35.844Z,0
2019-02-12T21:23:16.540Z,0
2019-02-12T21:23:57.011Z,0
2019-02-12T21:24:37.454Z,0
2019-02-12T21:25:17.906Z,0
2019-02-12T21:25:58.310Z,0
2019-02-12T21:26:38.796Z,0
2019-02-12T21:27:23.313Z,0
2019-02-12T21:27:59.680Z,0
2019-02-12T21:28:40.131Z,0
2019-02-12T21:29:20.509Z,0
2019-02-12T21:30:00.895Z,0
2019-02-12T21:30:41.298Z,0
2019-02-12T21:31:21.732Z,0
2019-02-12T21:32:02.096Z,0
2019-02-12T21:32:42.516Z,0
2019-02-12T21:33:23.005Z,0
2019-02-12T21:34:03.442Z,0
2019-02-12T21:34:43.739Z,0
2019-02-12T21:35:24.255Z,0
2019-02-12T21:36:04.623Z,0
2019-02-12T21:36:45.101Z,0
2019-02-12T21:37:25.415Z,0
2019-02-12T21:38:05.755Z,0
2019-02-12T21:38:46.205Z,0
2019-02-12T21:39:26.642Z,0
2019-02-12T21:40:07.004Z,0
2019-02-12T21:40:47.371Z,0
2019-02-12T21:41:27.836Z,0
2019-02-12T21:42:08.261Z,0
2019-02-12T21:42:48.587Z,0
2019-02-12T21:43:29.033Z,0
2019-02-12T21:44:09.409Z,0
2019-02-12T21:44:49.792Z,0
2019-02-12T21:45:30.111Z,0
2019-02-12T21:46:10.597Z,0
2019-02-12T21:46:50.966Z,0
2019-02-12T21:47:31.437Z,0
2019-02-12T21:48:11.748Z,0
2019-02-12T21:48:52.194Z,0
2019-02-12T21:49:32.571Z,0
2019-02-12T21:50:12.960Z,0
2019-02-12T21:50:53.317Z,0
2019-02-12T21:51:33.728Z,0
2019-02-12T21:52:14.227Z,0
2019-02-12T21:52:54.599Z,0
2019-02-12T21:53:34.928Z,0
2019-02-12T21:54:15.300Z,0
2019-02-12T21:54:55.727Z,0
2019-02-12T21:55:36.073Z,0
2019-02-12T21:56:16.656Z,0
2019-02-12T21:56:57.021Z,0
2019-02-12T21:57:37.574Z,0
2019-02-12T21:58:17.862Z,0
2019-02-12T21:58:58.285Z,0
2019-02-12T21:59:38.637Z,0
2019-02-12T22:00:19.057Z,0
2019-02-12T22:00:59.418Z,0
2019-02-12T22:01:39.895Z,0
2019-02-12T22:02:20.306Z,0
2019-02-12T22:03:00.656Z,0
2019-02-12T22:03:41.183Z,0
2019-02-12T22:04:21.614Z,0
2019-02-12T22:05:01.942Z,0
2019-02-12T22:05:42.446Z,0
2019-02-12T22:06:22.779Z,0
2019-02-12T22:07:03.243Z,0
2019-02-12T22:07:43.627Z,0
2019-02-12T22:08:24.112Z,0
2019-02-12T22:09:04.433Z,0
2019-02-12T22:09:44.842Z,0
2019-02-12T22:10:25.255Z,0
2019-02-12T22:11:05.715Z,0
2019-02-12T22:11:46.036Z,0
2019-02-12T22:12:26.451Z,0
2019-02-12T22:13:06.867Z,0
2019-02-12T22:13:47.232Z,0
2019-02-12T22:14:27.542Z,0
2019-02-12T22:15:07.978Z,0
2019-02-12T22:15:48.398Z,0
2019-02-12T22:16:28.754Z,0
2019-02-12T22:17:09.079Z,0
2019-02-12T22:17:49.536Z,0
2019-02-12T22:18:30.017Z,0
2019-02-12T22:19:10.354Z,0
2019-02-12T22:19:50.727Z,0
2019-02-12T22:20:31.078Z,0
2019-02-12T22:21:11.550Z,0
2019-02-12T22:21:51.882Z,0
2019-02-12T22:22:32.290Z,0
2019-02-12T22:23:12.665Z,0
2019-02-12T22:23:53.110Z,0
2019-02-12T22:24:33.403Z,0
2019-02-12T22:25:13.766Z,0
2019-02-12T22:25:54.185Z,0
2019-02-12T22:26:34.595Z,0
2019-02-12T22:27:15.024Z,0
2019-02-12T22:27:55.412Z,0
2019-02-12T22:28:35.837Z,0
2019-02-12T23:06:26.058Z,0
2019-02-12T23:07:18.509Z,0
2019-02-12T23:08:10.328Z,0
2019-02-12T23:09:02.369Z,0
2019-02-12T23:09:55.461Z,0
2019-02-12T23:10:48.065Z,0
2019-02-12T23:11:40.884Z,0
2019-02-12T23:12:33.946Z,0
2019-02-12T23:13:25.996Z,0
2019-02-12T23:14:18.270Z,0
2019-02-12T23:15:10.952Z,0
2019-02-12T23:16:03.265Z,0
2019-02-12T23:16:56.442Z,0
2019-02-12T23:17:48.837Z,0
2019-02-12T23:18:41.817Z,0
2019-02-12T23:19:34.668Z,0
2019-02-12T23:20:27.244Z,0
2019-02-12T23:21:19.296Z,0
2019-02-12T23:22:11.926Z,0
2019-02-12T23:23:04.239Z,0
2019-02-12T23:23:56.812Z,0
2019-02-12T23:24:49.358Z,0
2019-02-12T23:25:41.833Z,0
2019-02-12T23:26:35.105Z,0
2019-02-12T23:27:27.364Z,0
2019-02-12T23:28:20.879Z,0
2019-02-12T23:29:13.760Z,0
2019-02-12T23:30:06.809Z,0
2019-02-12T23:30:59.450Z,0
2019-02-12T23:31:51.907Z,0
2019-02-12T23:32:44.989Z,0
2019-02-12T23:33:37.853Z,0
2019-02-12T23:34:33.975Z,0
2019-02-12T23:35:26.487Z,0
2019-02-12T23:36:19.953Z,0
2019-02-12T23:37:14.290Z,0
2019-02-12T23:38:06.872Z,0
2019-02-12T23:38:59.625Z,0
2019-02-12T23:39:52.450Z,0
2019-02-12T23:40:45.916Z,0
2019-02-12T23:41:39.837Z,0
2019-02-12T23:42:32.791Z,0
2019-02-12T23:43:25.820Z,0
2019-02-12T23:44:21.257Z,0
2019-02-12T23:45:14.235Z,0
2019-02-12T23:46:06.372Z,0
2019-02-12T23:46:58.979Z,0
2019-02-12T23:47:51.046Z,0
2019-02-12T23:48:43.864Z,0
2019-02-12T23:49:37.362Z,0
2019-02-12T23:50:31.067Z,0
2019-02-12T23:51:24.365Z,0
2019-02-12T23:52:18.715Z,0